createdAt,value
2023-02-28T00:00:30.367Z,1014.42
2023-02-28T00:01:30.765Z,1014.41
2023-02-28T00:02:30.404Z,1014.36
2023-02-28T00:03:30.417Z,1014.38
2023-02-28T00:04:30.314Z,1014.35
2023-02-28T00:05:35.351Z,1014.35
2023-02-28T00:06:30.293Z,1014.36
2023-02-28T00:07:30.307Z,1014.43
2023-02-28T00:08:30.279Z,1014.41
2023-02-28T00:09:30.262Z,1014.43
2023-02-28T00:10:30.261Z,1014.35
2023-02-28T00:11:30.685Z,1014.39
2023-02-28T00:12:30.227Z,1014.42
2023-02-28T00:13:30.249Z,1014.32
2023-02-28T00:14:30.206Z,1014.35
2023-02-28T00:15:30.208Z,1014.37
2023-02-28T00:16:35.299Z,1014.38
2023-02-28T00:17:30.172Z,1014.35
2023-02-28T00:18:31.585Z,1014.35
2023-02-28T00:19:30.194Z,1014.38
2023-02-28T00:20:30.151Z,1014.32
2023-02-28T00:21:30.604Z,1014.27
2023-02-28T00:22:30.119Z,1014.28
2023-02-28T00:23:30.129Z,1014.28
2023-02-28T00:24:30.097Z,1014.27
2023-02-28T00:25:30.164Z,1014.33
2023-02-28T00:26:30.076Z,1014.30
2023-02-28T00:27:35.104Z,1014.30
2023-02-28T00:28:30.050Z,1014.31
2023-02-28T00:29:30.037Z,1014.34
2023-02-28T00:30:30.073Z,1014.33
2023-02-28T00:31:30.443Z,1014.37
2023-02-28T00:32:30.014Z,1014.27
2023-02-28T00:33:29.997Z,1014.27
2023-02-28T00:34:30.008Z,1014.31
2023-02-28T00:35:30.037Z,1014.29
2023-02-28T00:36:29.965Z,1014.24
2023-02-28T00:37:29.977Z,1014.25
2023-02-28T00:38:34.980Z,1014.29
2023-02-28T00:39:29.932Z,1014.27
2023-02-28T00:40:29.929Z,1014.29
2023-02-28T00:41:30.234Z,1014.31
2023-02-28T00:42:29.893Z,1014.28
2023-02-28T00:43:29.909Z,1014.25
2023-02-28T00:44:29.878Z,1014.23
2023-02-28T00:45:29.859Z,1014.34
2023-02-28T00:46:29.930Z,1014.27
2023-02-28T00:47:29.835Z,1014.25
2023-02-28T00:48:29.826Z,1014.28
2023-02-28T00:49:34.876Z,1014.29
2023-02-28T00:50:29.822Z,1014.26
2023-02-28T00:51:30.266Z,1014.25
2023-02-28T00:52:29.789Z,1014.33
2023-02-28T00:53:29.772Z,1014.34
2023-02-28T00:54:29.769Z,1014.32
2023-02-28T00:55:29.783Z,1014.33
2023-02-28T00:56:29.755Z,1014.32
2023-02-28T00:57:29.725Z,1014.37
2023-02-28T00:58:29.714Z,1014.31
2023-02-28T00:59:29.704Z,1014.36
2023-02-28T01:00:34.718Z,1014.32
2023-02-28T01:01:30.062Z,1014.31
2023-02-28T01:02:29.681Z,1014.28
2023-02-28T01:03:29.668Z,1014.30
2023-02-28T01:04:29.703Z,1014.34
2023-02-28T01:05:29.660Z,1014.30
2023-02-28T01:06:29.643Z,1014.28
2023-02-28T01:07:29.656Z,1014.30
2023-02-28T01:08:29.608Z,1014.27
2023-02-28T01:09:29.593Z,1014.28
2023-02-28T01:10:29.586Z,1014.28
2023-02-28T01:11:34.602Z,1014.25
2023-02-28T01:12:30.985Z,1014.30
2023-02-28T01:13:29.572Z,1014.27
2023-02-28T01:14:29.542Z,1014.30
2023-02-28T01:15:29.578Z,1014.28
2023-02-28T01:16:29.528Z,1014.26
2023-02-28T01:17:29.508Z,1014.25
2023-02-28T01:18:29.501Z,1014.27
2023-02-28T01:19:29.497Z,1014.30
2023-02-28T01:20:29.474Z,1014.28
2023-02-28T01:21:29.931Z,1014.31
2023-02-28T01:22:34.481Z,1014.26
2023-02-28T01:23:29.441Z,1014.29
2023-02-28T01:24:29.428Z,1014.30
2023-02-28T01:25:29.492Z,1014.26
2023-02-28T01:26:29.423Z,1014.19
2023-02-28T01:27:29.404Z,1014.28
2023-02-28T01:28:29.392Z,1014.29
2023-02-28T01:29:29.371Z,1014.26
2023-02-28T01:30:29.371Z,1014.24
2023-02-28T01:31:29.813Z,1014.18
2023-02-28T01:32:29.347Z,1014.19
2023-02-28T01:33:34.359Z,1014.22
2023-02-28T01:34:29.327Z,1014.27
2023-02-28T01:35:29.314Z,1014.24
2023-02-28T01:36:29.303Z,1014.24
2023-02-28T01:37:29.314Z,1014.20
2023-02-28T01:38:29.287Z,1014.20
2023-02-28T01:39:29.258Z,1014.19
2023-02-28T01:40:29.249Z,1014.19
2023-02-28T01:41:29.520Z,1014.22
2023-02-28T01:42:29.236Z,1014.25
2023-02-28T01:43:29.243Z,1014.18
2023-02-28T01:44:34.229Z,1014.27
2023-02-28T01:45:29.199Z,1014.24
2023-02-28T01:46:29.214Z,1014.21
2023-02-28T01:47:29.189Z,1014.24
2023-02-28T01:48:29.160Z,1014.16
2023-02-28T01:49:29.171Z,1014.22
2023-02-28T01:50:29.150Z,1014.20
2023-02-28T01:51:29.387Z,1014.22
2023-02-28T01:52:29.128Z,1014.21
2023-02-28T01:53:29.133Z,1014.19
2023-02-28T01:54:29.098Z,1014.20
2023-02-28T01:55:34.132Z,1014.18
2023-02-28T01:56:29.068Z,1014.12
2023-02-28T01:57:29.066Z,1014.22
2023-02-28T01:58:29.054Z,1014.10
2023-02-28T01:59:29.037Z,1014.10
2023-02-28T02:00:29.029Z,1014.12
2023-02-28T02:01:29.519Z,1014.05
2023-02-28T02:02:29.040Z,1014.06
2023-02-28T02:03:28.991Z,1014.04
2023-02-28T02:04:28.982Z,1014.10
2023-02-28T02:05:28.967Z,1014.10
2023-02-28T02:06:33.981Z,1014.11
2023-02-28T02:07:28.989Z,1014.06
2023-02-28T02:08:28.935Z,1014.06
2023-02-28T02:09:28.950Z,1014.14
2023-02-28T02:10:28.954Z,1014.09
2023-02-28T02:11:29.127Z,1014.08
2023-02-28T02:12:28.909Z,1013.97
2023-02-28T02:13:28.892Z,1014.02
2023-02-28T02:14:28.869Z,1014.06
2023-02-28T02:15:28.857Z,1014.07
2023-02-28T02:16:28.848Z,1014.04
2023-02-28T02:17:33.870Z,1014.08
2023-02-28T02:18:28.826Z,1014.14
2023-02-28T02:19:28.838Z,1014.01
2023-02-28T02:20:28.804Z,1014.01
2023-02-28T02:21:29.033Z,1014.03
2023-02-28T02:22:28.796Z,1013.96
2023-02-28T02:23:28.782Z,1014.07
2023-02-28T02:24:28.769Z,1014.04
2023-02-28T02:25:28.809Z,1014.02
2023-02-28T02:26:28.744Z,1014.11
2023-02-28T02:27:28.724Z,1014.09
2023-02-28T02:28:33.774Z,1014.08
2023-02-28T02:29:28.701Z,1014.00
2023-02-28T02:30:28.692Z,1014.04
2023-02-28T02:31:29.145Z,1014.06
2023-02-28T02:32:28.725Z,1013.98
2023-02-28T02:33:28.667Z,1014.03
2023-02-28T02:34:28.653Z,1013.97
2023-02-28T02:35:28.791Z,1013.95
2023-02-28T02:36:28.627Z,1013.98
2023-02-28T02:37:28.637Z,1013.96
2023-02-28T02:38:28.614Z,1014.02
2023-02-28T02:39:33.613Z,1013.98
2023-02-28T02:40:28.605Z,1014.02
2023-02-28T02:41:28.846Z,1013.94
2023-02-28T02:42:28.560Z,1013.93
2023-02-28T02:43:28.574Z,1013.97
2023-02-28T02:44:28.541Z,1014.05
2023-02-28T02:45:28.527Z,1013.98
2023-02-28T02:46:28.575Z,1014.02
2023-02-28T02:47:28.502Z,1014.03
2023-02-28T02:48:28.501Z,1013.97
2023-02-28T02:49:28.497Z,1013.98
2023-02-28T02:50:33.495Z,1014.01
2023-02-28T02:51:28.919Z,1014.02
2023-02-28T02:52:28.467Z,1014.02
2023-02-28T02:53:28.489Z,1014.05
2023-02-28T02:54:28.474Z,1014.06
2023-02-28T02:55:28.497Z,1014.07
2023-02-28T02:56:28.409Z,1014.07
2023-02-28T02:57:28.416Z,1014.03
2023-02-28T02:58:28.394Z,1014.03
2023-02-28T02:59:28.370Z,1014.01
2023-02-28T03:00:28.359Z,1014.04
2023-02-28T03:01:33.406Z,1013.99
2023-02-28T03:02:28.339Z,1013.98
2023-02-28T03:03:28.356Z,1013.99
2023-02-28T03:04:28.314Z,1013.98
2023-02-28T03:05:28.302Z,1013.97
2023-02-28T03:06:28.298Z,1014.01
2023-02-28T03:07:28.303Z,1013.90
2023-02-28T03:08:28.279Z,1013.91
2023-02-28T03:09:28.259Z,1013.89
2023-02-28T03:10:28.258Z,1013.90
2023-02-28T03:11:28.663Z,1013.87
2023-02-28T03:12:33.266Z,1013.91
2023-02-28T03:13:28.265Z,1013.94
2023-02-28T03:14:28.205Z,1013.94
2023-02-28T03:15:28.190Z,1013.93
2023-02-28T03:16:28.257Z,1013.87
2023-02-28T03:17:28.172Z,1013.93
2023-02-28T03:18:28.186Z,1013.92
2023-02-28T03:19:28.209Z,1013.85
2023-02-28T03:20:28.142Z,1013.87
2023-02-28T03:21:28.414Z,1013.83
2023-02-28T03:22:28.118Z,1013.87
2023-02-28T03:23:33.192Z,1013.85
2023-02-28T03:24:28.109Z,1013.82
2023-02-28T03:25:28.102Z,1013.81
2023-02-28T03:26:28.074Z,1013.86
2023-02-28T03:27:28.071Z,1013.78
2023-02-28T03:28:28.103Z,1013.85
2023-02-28T03:31:46.833Z,1013.88
2023-02-28T03:32:46.694Z,1013.91
2023-02-28T03:33:46.683Z,1013.85
2023-02-28T03:34:46.684Z,1013.86
2023-02-28T03:35:46.750Z,1013.87
2023-02-28T03:36:46.714Z,1013.79
2023-02-28T03:37:46.670Z,1013.80
2023-02-28T03:38:46.626Z,1013.78
2023-02-28T03:39:46.627Z,1013.76
2023-02-28T03:40:46.635Z,1013.81
2023-02-28T03:41:46.597Z,1013.77
2023-02-28T03:42:51.607Z,1013.84
2023-02-28T03:43:46.597Z,1013.83
2023-02-28T03:44:46.591Z,1013.84
2023-02-28T03:45:46.604Z,1013.81
2023-02-28T03:46:46.540Z,1013.81
2023-02-28T03:47:46.528Z,1013.83
2023-02-28T03:48:46.529Z,1013.86
2023-02-28T03:49:46.515Z,1013.90
2023-02-28T03:50:46.500Z,1013.89
2023-02-28T03:51:46.512Z,1013.81
2023-02-28T03:52:46.474Z,1013.78
2023-02-28T03:53:51.486Z,1013.93
2023-02-28T03:54:46.482Z,1013.86
2023-02-28T03:55:46.462Z,1013.83
2023-02-28T03:56:46.427Z,1013.83
2023-02-28T03:57:46.454Z,1013.80
2023-02-28T03:58:46.412Z,1013.82
2023-02-28T03:59:46.430Z,1013.82
2023-02-28T04:00:46.385Z,1013.84
2023-02-28T04:01:46.496Z,1013.90
2023-02-28T04:02:46.377Z,1013.85
2023-02-28T04:03:46.387Z,1013.92
2023-02-28T04:04:51.430Z,1013.84
2023-02-28T04:05:46.329Z,1013.92
2023-02-28T04:06:46.329Z,1013.81
2023-02-28T04:07:46.308Z,1013.76
2023-02-28T04:08:46.302Z,1013.87
2023-02-28T04:09:46.332Z,1013.77
2023-02-28T04:10:46.278Z,1013.80
2023-02-28T04:11:46.268Z,1013.77
2023-02-28T04:12:46.253Z,1013.76
2023-02-28T04:13:47.590Z,1013.82
2023-02-28T04:14:46.256Z,1013.86
2023-02-28T04:15:51.347Z,1013.83
2023-02-28T04:16:46.304Z,1013.85
2023-02-28T04:17:46.217Z,1013.87
2023-02-28T04:18:46.187Z,1013.84
2023-02-28T04:19:46.193Z,1013.89
2023-02-28T04:20:46.173Z,1013.92
2023-02-28T04:21:46.154Z,1013.86
2023-02-28T04:22:46.171Z,1013.89
2023-02-28T04:23:46.133Z,1013.81
2023-02-28T04:24:46.121Z,1013.76
2023-02-28T04:25:46.127Z,1013.85
2023-02-28T04:26:51.118Z,1013.88
2023-02-28T04:27:46.093Z,1013.87
2023-02-28T04:28:46.096Z,1013.82
2023-02-28T04:29:46.074Z,1013.85
2023-02-28T04:30:46.072Z,1013.89
2023-02-28T04:31:46.210Z,1013.92
2023-02-28T04:32:46.033Z,1013.86
2023-02-28T04:33:46.026Z,1013.88
2023-02-28T04:34:46.029Z,1013.89
2023-02-28T04:35:46.103Z,1013.84
2023-02-28T04:36:45.992Z,1013.85
2023-02-28T04:37:51.002Z,1013.87
2023-02-28T04:38:45.965Z,1013.81
2023-02-28T04:39:45.978Z,1013.85
2023-02-28T04:40:45.977Z,1013.92
2023-02-28T04:41:45.934Z,1013.91
2023-02-28T04:42:45.925Z,1013.83
2023-02-28T04:43:45.912Z,1013.82
2023-02-28T04:44:45.906Z,1013.80
2023-02-28T04:45:45.924Z,1013.83
2023-02-28T04:46:45.894Z,1013.84
2023-02-28T04:47:45.912Z,1013.84
2023-02-28T04:48:50.878Z,1013.85
2023-02-28T04:49:45.846Z,1013.83
2023-02-28T04:50:45.849Z,1013.81
2023-02-28T04:51:45.824Z,1013.83
2023-02-28T04:52:45.862Z,1013.85
2023-02-28T04:53:45.811Z,1013.86
2023-02-28T04:54:45.789Z,1013.81
2023-02-28T04:55:45.812Z,1013.87
2023-02-28T04:56:45.773Z,1013.87
2023-02-28T04:57:45.760Z,1013.84
2023-02-28T04:58:45.765Z,1013.84
2023-02-28T04:59:50.768Z,1013.85
2023-02-28T05:00:45.720Z,1013.85
2023-02-28T05:01:45.718Z,1013.86
2023-02-28T05:02:45.695Z,1013.89
2023-02-28T05:03:45.712Z,1013.92
2023-02-28T05:04:45.737Z,1013.95
2023-02-28T05:05:45.669Z,1014.03
2023-02-28T05:06:45.678Z,1013.95
2023-02-28T05:07:45.642Z,1013.96
2023-02-28T05:08:45.628Z,1013.98
2023-02-28T05:09:45.620Z,1013.97
2023-02-28T05:10:50.687Z,1013.96
2023-02-28T05:11:45.609Z,1013.92
2023-02-28T05:12:45.585Z,1013.94
2023-02-28T05:13:45.579Z,1013.98
2023-02-28T05:14:45.568Z,1013.96
2023-02-28T05:15:45.556Z,1014.00
2023-02-28T05:16:45.590Z,1014.00
2023-02-28T05:17:45.537Z,1014.00
2023-02-28T05:18:45.558Z,1014.00
2023-02-28T05:19:45.535Z,1013.96
2023-02-28T05:20:45.498Z,1013.96
2023-02-28T05:21:50.523Z,1014.09
2023-02-28T05:22:45.498Z,1014.01
2023-02-28T05:23:46.826Z,1014.07
2023-02-28T05:24:45.458Z,1014.06
2023-02-28T05:25:45.443Z,1014.09
2023-02-28T05:26:45.440Z,1014.11
2023-02-28T05:27:45.422Z,1014.08
2023-02-28T05:28:45.455Z,1014.08
2023-02-28T05:29:45.410Z,1014.04
2023-02-28T05:30:45.390Z,1014.14
2023-02-28T05:31:45.525Z,1014.06
2023-02-28T05:32:50.394Z,1014.07
2023-02-28T05:33:45.364Z,1014.10
2023-02-28T05:34:45.389Z,1014.11
2023-02-28T05:35:45.409Z,1014.10
2023-02-28T05:36:45.324Z,1014.09
2023-02-28T05:37:45.321Z,1014.09
2023-02-28T05:38:45.302Z,1014.07
2023-02-28T05:39:45.299Z,1014.09
2023-02-28T05:40:45.301Z,1014.12
2023-02-28T05:41:45.282Z,1014.08
2023-02-28T05:42:45.275Z,1014.13
2023-02-28T05:43:50.271Z,1014.09
2023-02-28T05:44:45.231Z,1014.07
2023-02-28T05:45:45.250Z,1014.08
2023-02-28T05:46:45.241Z,1014.09
2023-02-28T05:47:45.212Z,1014.10
2023-02-28T05:48:45.220Z,1014.11
2023-02-28T05:49:45.180Z,1014.10
2023-02-28T05:50:45.167Z,1014.16
2023-02-28T05:51:45.176Z,1014.13
2023-02-28T05:52:45.215Z,1014.19
2023-02-28T05:53:45.169Z,1014.25
2023-02-28T05:54:50.164Z,1014.17
2023-02-28T05:55:45.116Z,1014.18
2023-02-28T05:56:45.142Z,1014.15
2023-02-28T05:57:45.104Z,1014.20
2023-02-28T05:58:45.111Z,1014.17
2023-02-28T05:59:45.073Z,1014.18
2023-02-28T06:00:45.060Z,1014.12
2023-02-28T06:01:45.053Z,1014.14
2023-02-28T06:02:45.060Z,1014.15
2023-02-28T06:03:45.084Z,1014.16
2023-02-28T06:04:45.067Z,1014.07
2023-02-28T06:05:50.035Z,1014.13
2023-02-28T06:06:44.996Z,1014.08
2023-02-28T06:07:45.006Z,1014.13
2023-02-28T06:08:44.992Z,1014.16
2023-02-28T06:09:44.972Z,1014.14
2023-02-28T06:10:45.003Z,1014.16
2023-02-28T06:11:44.945Z,1014.17
2023-02-28T06:12:44.934Z,1014.19
2023-02-28T06:13:44.932Z,1014.19
2023-02-28T06:14:44.909Z,1014.21
2023-02-28T06:15:44.917Z,1014.24
2023-02-28T06:16:50.073Z,1014.19
2023-02-28T06:17:44.880Z,1014.25
2023-02-28T06:18:44.880Z,1014.24
2023-02-28T06:19:44.861Z,1014.27
2023-02-28T06:20:44.851Z,1014.21
2023-02-28T06:21:44.847Z,1014.27
2023-02-28T06:22:44.855Z,1014.35
2023-02-28T06:23:44.847Z,1014.29
2023-02-28T06:24:44.812Z,1014.32
2023-02-28T06:25:44.821Z,1014.33
2023-02-28T06:26:44.779Z,1014.29
2023-02-28T06:27:49.794Z,1014.29
2023-02-28T06:28:44.817Z,1014.33
2023-02-28T06:29:44.761Z,1014.35
2023-02-28T06:30:46.490Z,1014.34
2023-02-28T06:31:44.839Z,1014.36
2023-02-28T06:32:44.719Z,1014.39
2023-02-28T06:33:44.716Z,1014.36
2023-02-28T06:34:44.745Z,1014.31
2023-02-28T06:35:44.689Z,1014.32
2023-02-28T06:36:44.672Z,1014.28
2023-02-28T06:37:44.663Z,1014.31
2023-02-28T06:38:49.703Z,1014.38
2023-02-28T06:39:44.645Z,1014.35
2023-02-28T06:40:44.654Z,1014.31
2023-02-28T06:41:54.986Z,1014.41
2023-02-28T06:42:44.610Z,1014.35
2023-02-28T06:43:44.606Z,1014.34
2023-02-28T06:44:44.596Z,1014.29
2023-02-28T06:45:44.580Z,1014.36
2023-02-28T06:46:44.589Z,1014.38
2023-02-28T06:47:44.556Z,1014.42
2023-02-28T06:48:44.551Z,1014.34
2023-02-28T06:49:49.553Z,1014.44
2023-02-28T06:50:44.519Z,1014.40
2023-02-28T06:51:44.510Z,1014.35
2023-02-28T06:52:44.548Z,1014.38
2023-02-28T06:53:44.497Z,1014.41
2023-02-28T06:54:44.504Z,1014.45
2023-02-28T06:55:44.474Z,1014.45
2023-02-28T06:56:44.458Z,1014.39
2023-02-28T06:57:44.446Z,1014.49
2023-02-28T06:58:44.501Z,1014.47
2023-02-28T06:59:44.423Z,1014.42
2023-02-28T07:00:49.432Z,1014.47
2023-02-28T07:01:44.482Z,1014.49
2023-02-28T07:02:44.394Z,1014.45
2023-02-28T07:03:44.392Z,1014.56
2023-02-28T07:04:44.432Z,1014.50
2023-02-28T07:05:44.355Z,1014.55
2023-02-28T07:06:44.341Z,1014.53
2023-02-28T07:07:44.334Z,1014.56
2023-02-28T07:08:44.352Z,1014.56
2023-02-28T07:09:44.316Z,1014.51
2023-02-28T07:10:44.435Z,1014.54
2023-02-28T07:11:49.322Z,1014.59
2023-02-28T07:12:44.326Z,1014.55
2023-02-28T07:13:44.285Z,1014.64
2023-02-28T07:14:44.254Z,1014.62
2023-02-28T07:15:44.439Z,1014.58
2023-02-28T07:16:44.230Z,1014.65
2023-02-28T07:17:44.224Z,1014.57
2023-02-28T07:18:44.223Z,1014.65
2023-02-28T07:19:44.211Z,1014.64
2023-02-28T07:20:44.187Z,1014.67
2023-02-28T07:21:44.201Z,1014.65
2023-02-28T07:22:49.187Z,1014.67
2023-02-28T07:23:44.187Z,1014.67
2023-02-28T07:24:44.152Z,1014.77
2023-02-28T07:25:44.131Z,1014.78
2023-02-28T07:26:44.143Z,1014.73
2023-02-28T07:27:44.119Z,1014.83
2023-02-28T07:28:44.098Z,1014.79
2023-02-28T07:29:44.140Z,1014.77
2023-02-28T07:30:44.083Z,1014.76
2023-02-28T07:31:44.101Z,1014.83
2023-02-28T07:32:45.310Z,1014.78
2023-02-28T07:33:49.071Z,1014.77
2023-02-28T07:34:44.045Z,1014.78
2023-02-28T07:35:44.075Z,1014.86
2023-02-28T07:36:44.031Z,1014.71
2023-02-28T07:37:44.019Z,1014.75
2023-02-28T07:38:45.194Z,1014.75
2023-02-28T07:39:43.994Z,1014.80
2023-02-28T07:40:43.977Z,1014.71
2023-02-28T07:41:43.978Z,1014.74
2023-02-28T07:42:43.980Z,1014.75
2023-02-28T07:43:43.949Z,1014.72
2023-02-28T07:44:48.961Z,1014.73
2023-02-28T07:45:43.922Z,1014.83
2023-02-28T07:46:43.967Z,1014.75
2023-02-28T07:47:43.913Z,1014.80
2023-02-28T07:48:43.912Z,1014.73
2023-02-28T07:49:43.910Z,1014.75
2023-02-28T07:50:43.871Z,1014.70
2023-02-28T07:51:43.854Z,1014.77
2023-02-28T07:52:43.858Z,1014.75
2023-02-28T07:53:43.856Z,1014.83
2023-02-28T07:54:43.833Z,1014.78
2023-02-28T07:55:48.833Z,1014.84
2023-02-28T07:56:43.806Z,1014.83
2023-02-28T07:57:43.791Z,1014.84
2023-02-28T07:58:43.803Z,1014.80
2023-02-28T07:59:46.043Z,1014.81
2023-02-28T08:00:43.794Z,1014.86
2023-02-28T08:01:43.792Z,1014.80
2023-02-28T08:02:43.739Z,1014.84
2023-02-28T08:03:43.728Z,1014.81
2023-02-28T08:04:43.778Z,1014.85
2023-02-28T08:05:43.732Z,1014.89
2023-02-28T08:06:48.717Z,1014.89
2023-02-28T08:07:43.688Z,1014.96
2023-02-28T08:08:43.673Z,1014.88
2023-02-28T08:09:43.678Z,1014.89
2023-02-28T08:10:43.650Z,1014.82
2023-02-28T08:11:43.668Z,1014.85
2023-02-28T08:12:43.628Z,1014.86
2023-02-28T08:13:43.614Z,1014.82
2023-02-28T08:14:43.644Z,1014.77
2023-02-28T08:15:43.598Z,1014.77
2023-02-28T08:16:43.588Z,1014.78
2023-02-28T08:17:48.617Z,1014.82
2023-02-28T08:18:43.568Z,1014.82
2023-02-28T08:19:43.560Z,1014.88
2023-02-28T08:20:43.540Z,1014.86
2023-02-28T08:21:43.524Z,1014.84
2023-02-28T08:22:45.861Z,1014.78
2023-02-28T08:23:43.530Z,1014.82
2023-02-28T08:24:43.511Z,1014.71
2023-02-28T08:25:43.484Z,1014.76
2023-02-28T08:26:43.474Z,1014.83
2023-02-28T08:27:43.470Z,1014.82
2023-02-28T08:28:48.473Z,1014.82
2023-02-28T08:29:43.459Z,1014.77
2023-02-28T08:30:43.460Z,1014.77
2023-02-28T08:31:43.438Z,1014.75
2023-02-28T08:32:43.485Z,1014.70
2023-02-28T08:33:43.391Z,1014.66
2023-02-28T08:34:43.386Z,1014.67
2023-02-28T08:35:43.425Z,1014.72
2023-02-28T08:36:43.415Z,1014.68
2023-02-28T08:37:43.374Z,1014.76
2023-02-28T08:38:43.339Z,1014.77
2023-02-28T08:39:48.347Z,1014.77
2023-02-28T08:40:43.326Z,1014.74
2023-02-28T08:41:43.342Z,1014.76
2023-02-28T08:42:43.300Z,1014.83
2023-02-28T08:43:43.287Z,1014.75
2023-02-28T08:44:43.278Z,1014.80
2023-02-28T08:45:43.301Z,1014.75
2023-02-28T08:46:43.275Z,1014.76
2023-02-28T08:47:43.256Z,1014.73
2023-02-28T08:48:43.225Z,1014.67
2023-02-28T08:49:43.216Z,1014.73
2023-02-28T08:50:55.753Z,1014.70
2023-02-28T08:51:43.193Z,1014.77
2023-02-28T08:52:43.179Z,1014.80
2023-02-28T08:53:43.201Z,1014.71
2023-02-28T08:54:43.156Z,1014.67
2023-02-28T08:55:43.154Z,1014.64
2023-02-28T08:56:43.150Z,1014.70
2023-02-28T08:57:43.122Z,1014.76
2023-02-28T08:58:43.117Z,1014.70
2023-02-28T08:59:43.119Z,1014.70
2023-02-28T09:00:43.150Z,1014.69
2023-02-28T09:01:48.123Z,1014.77
2023-02-28T09:02:43.069Z,1014.79
2023-02-28T09:03:43.079Z,1014.79
2023-02-28T09:04:43.054Z,1014.82
2023-02-28T09:05:43.062Z,1014.77
2023-02-28T09:06:43.070Z,1014.72
2023-02-28T09:07:43.010Z,1014.72
2023-02-28T09:08:43.001Z,1014.70
2023-02-28T09:09:42.989Z,1014.69
2023-02-28T09:10:42.995Z,1014.69
2023-02-28T09:11:42.983Z,1014.78
2023-02-28T09:12:47.990Z,1014.76
2023-02-28T09:13:42.944Z,1014.76
2023-02-28T09:14:42.933Z,1014.71
2023-02-28T09:15:42.936Z,1014.67
2023-02-28T09:16:42.944Z,1014.72
2023-02-28T09:17:45.681Z,1014.71
2023-02-28T09:18:42.894Z,1014.80
2023-02-28T09:19:42.875Z,1014.71
2023-02-28T09:20:42.874Z,1014.72
2023-02-28T09:21:42.859Z,1014.73
2023-02-28T09:22:42.844Z,1014.70
2023-02-28T09:23:47.889Z,1014.80
2023-02-28T09:24:42.895Z,1014.86
2023-02-28T09:25:42.830Z,1014.82
2023-02-28T09:26:51.622Z,1014.76
2023-02-28T09:27:43.197Z,1014.75
2023-02-28T09:28:42.779Z,1014.77
2023-02-28T09:29:42.789Z,1014.91
2023-02-28T09:30:42.805Z,1014.78
2023-02-28T09:31:42.781Z,1014.72
2023-02-28T09:32:42.747Z,1014.79
2023-02-28T09:33:42.748Z,1014.76
2023-02-28T09:34:47.738Z,1014.73
2023-02-28T09:35:42.726Z,1014.72
2023-02-28T09:36:45.857Z,1014.70
2023-02-28T09:37:42.681Z,1014.69
2023-02-28T09:38:42.674Z,1014.65
2023-02-28T09:39:42.710Z,1014.72
2023-02-28T09:40:42.675Z,1014.60
2023-02-28T09:41:42.660Z,1014.67
2023-02-28T09:42:42.627Z,1014.65
2023-02-28T09:43:42.617Z,1014.66
2023-02-28T09:44:43.944Z,1014.67
2023-02-28T09:45:47.683Z,1014.62
2023-02-28T09:46:42.583Z,1014.64
2023-02-28T09:47:42.658Z,1014.65
2023-02-28T09:48:42.566Z,1014.67
2023-02-28T09:49:42.574Z,1014.67
2023-02-28T09:50:42.557Z,1014.66
2023-02-28T09:51:42.527Z,1014.57
2023-02-28T09:52:42.517Z,1014.64
2023-02-28T09:53:44.029Z,1014.60
2023-02-28T09:54:42.497Z,1014.57
2023-02-28T09:55:47.098Z,1014.63
2023-02-28T09:56:47.533Z,1014.64
2023-02-28T09:57:42.475Z,1014.61
2023-02-28T09:58:42.448Z,1014.60
2023-02-28T09:59:42.455Z,1014.61
2023-02-28T10:00:42.430Z,1014.68
2023-02-28T10:01:42.470Z,1014.59
2023-02-28T10:02:42.407Z,1014.68
2023-02-28T10:03:42.395Z,1014.56
2023-02-28T10:04:42.434Z,1014.67
2023-02-28T10:05:44.165Z,1014.68
2023-02-28T10:06:42.376Z,1014.67
2023-02-28T10:07:47.376Z,1014.62
2023-02-28T10:08:42.405Z,1014.64
2023-02-28T10:09:42.327Z,1014.69
2023-02-28T10:10:42.332Z,1014.63
2023-02-28T10:11:42.343Z,1014.70
2023-02-28T10:12:42.294Z,1014.64
2023-02-28T10:13:42.293Z,1014.65
2023-02-28T10:14:42.271Z,1014.71
2023-02-28T10:15:42.322Z,1014.59
2023-02-28T10:16:42.260Z,1014.64
2023-02-28T10:17:55.009Z,1014.61
2023-02-28T10:18:47.260Z,1014.56
2023-02-28T10:19:42.217Z,1014.60
2023-02-28T10:20:42.207Z,1014.64
2023-02-28T10:21:42.222Z,1014.55
2023-02-28T10:22:42.185Z,1014.61
2023-02-28T10:23:42.183Z,1014.65
2023-02-28T10:24:42.158Z,1014.58
2023-02-28T10:25:42.145Z,1014.67
2023-02-28T10:26:42.160Z,1014.66
2023-02-28T10:27:42.124Z,1014.70
2023-02-28T10:28:42.126Z,1014.65
2023-02-28T10:29:47.149Z,1014.67
2023-02-28T10:30:42.114Z,1014.61
2023-02-28T10:31:42.084Z,1014.67
2023-02-28T10:32:42.083Z,1014.63
2023-02-28T10:33:42.059Z,1014.55
2023-02-28T10:34:42.055Z,1014.60
2023-02-28T10:35:42.054Z,1014.63
2023-02-28T10:36:42.032Z,1014.61
2023-02-28T10:37:42.045Z,1014.65
2023-02-28T10:38:42.015Z,1014.57
2023-02-28T10:39:41.993Z,1014.64
2023-02-28T10:40:47.002Z,1014.74
2023-02-28T10:41:41.970Z,1014.60
2023-02-28T10:42:41.968Z,1014.50
2023-02-28T10:43:41.951Z,1014.72
2023-02-28T10:44:41.943Z,1014.57
2023-02-28T10:45:41.926Z,1014.62
2023-02-28T10:46:42.012Z,1014.59
2023-02-28T10:47:41.931Z,1014.66
2023-02-28T10:48:41.901Z,1014.60
2023-02-28T10:49:41.882Z,1014.65
2023-02-28T10:50:41.872Z,1014.67
2023-02-28T10:51:46.879Z,1014.66
2023-02-28T10:52:41.856Z,1014.60
2023-02-28T10:53:59.549Z,1014.62
2023-02-28T10:54:42.832Z,1014.67
2023-02-28T10:55:41.816Z,1014.66
2023-02-28T10:56:41.900Z,1014.60
2023-02-28T10:57:41.804Z,1014.61
2023-02-28T10:58:41.779Z,1014.60
2023-02-28T10:59:41.793Z,1014.54
2023-02-28T11:00:41.762Z,1014.60
2023-02-28T11:01:41.823Z,1014.66
2023-02-28T11:02:46.771Z,1014.77
2023-02-28T11:03:41.728Z,1014.56
2023-02-28T11:04:41.795Z,1014.56
2023-02-28T11:05:41.713Z,1014.48
2023-02-28T11:06:41.693Z,1014.56
2023-02-28T11:07:52.994Z,1014.59
2023-02-28T11:08:42.666Z,1014.51
2023-02-28T11:09:41.680Z,1014.53
2023-02-28T11:10:41.647Z,1014.54
2023-02-28T11:11:41.664Z,1014.56
2023-02-28T11:12:50.854Z,1014.52
2023-02-28T11:13:46.630Z,1014.53
2023-02-28T11:14:41.597Z,1014.44
2023-02-28T11:15:41.661Z,1014.42
2023-02-28T11:16:41.582Z,1014.32
2023-02-28T11:17:41.591Z,1014.47
2023-02-28T11:18:41.553Z,1014.53
2023-02-28T11:19:41.542Z,1014.50
2023-02-28T11:20:41.528Z,1014.47
2023-02-28T11:21:41.517Z,1014.42
2023-02-28T11:22:41.519Z,1014.41
2023-02-28T11:23:41.536Z,1014.41
2023-02-28T11:24:46.530Z,1014.43
2023-02-28T11:25:41.481Z,1014.54
2023-02-28T11:26:41.460Z,1014.49
2023-02-28T11:27:41.459Z,1014.53
2023-02-28T11:28:41.445Z,1014.49
2023-02-28T11:29:41.450Z,1014.46
2023-02-28T11:30:41.423Z,1014.40
2023-02-28T11:31:41.504Z,1014.37
2023-02-28T11:32:41.653Z,1014.46
2023-02-28T11:33:41.383Z,1014.30
2023-02-28T11:34:41.386Z,1014.37
2023-02-28T11:35:46.409Z,1014.39
2023-02-28T11:36:41.366Z,1014.35
2023-02-28T11:37:41.336Z,1014.43
2023-02-28T11:38:41.339Z,1014.37
2023-02-28T11:39:41.314Z,1014.39
2023-02-28T11:40:41.351Z,1014.38
2023-02-28T11:41:41.570Z,1014.38
2023-02-28T11:42:41.293Z,1014.35
2023-02-28T11:43:41.288Z,1014.34
2023-02-28T11:44:41.264Z,1014.41
2023-02-28T11:45:41.249Z,1014.36
2023-02-28T11:46:46.340Z,1014.35
2023-02-28T11:47:41.228Z,1014.25
2023-02-28T11:48:41.232Z,1014.25
2023-02-28T11:49:41.199Z,1014.26
2023-02-28T11:50:41.192Z,1014.29
2023-02-28T11:51:41.187Z,1014.26
2023-02-28T11:52:41.189Z,1014.21
2023-02-28T11:53:41.167Z,1014.26
2023-02-28T11:54:41.157Z,1014.30
2023-02-28T11:55:41.140Z,1014.24
2023-02-28T11:56:41.251Z,1014.20
2023-02-28T11:57:46.141Z,1014.17
2023-02-28T11:58:41.158Z,1014.22
2023-02-28T11:59:41.094Z,1014.21
2023-02-28T12:00:41.095Z,1014.22
2023-02-28T12:01:41.073Z,1014.24
2023-02-28T12:02:41.157Z,1014.25
2023-02-28T12:03:41.054Z,1014.19
2023-02-28T12:04:41.099Z,1014.19
2023-02-28T12:05:41.036Z,1014.25
2023-02-28T12:06:41.025Z,1014.23
2023-02-28T12:07:41.011Z,1014.22